Boneville, GA

07:15 AM EST del 25 Gennaio 2015 (GMT -0500)
Thomson-McDuffie County | Change Station
CLOSE
Current Station
Aeroporto
Location: Thomson,
Altitudine: 499 ft
Stazioni meteo nelle vicinanze

Alt. 499 ft 33.53 °N, 82.52 °W | Updated 20 minutes ago

Sereno
Sereno
34 °F
Sembra 34 °F
N
0
Vento Variabile Vento da Nord

Oggi
Massima -- | Minima -- °F
--% Possibilità di precip.
Ieri
Massima -- | Minima -- °F
Precip. -- in
7:30 AM 5:54 PM
Luna crescente, 31% visible
Pressione 30.03 in
Visibilità 10.0 miglia
Nuvole Sereno
Punto di rugiada 32 °F
Umidità 93%
Piovosità 0.00 in
Spessore del manto nevoso Non disponibile.
Raggi UV 0 fuori da 12
Polline .40 fuori da 12
Qualità dell'aria Non disponibile.
Flu Activity Non disponibile.
METAR KHQU 251155Z AUTO 00000KT 10SM CLR 01/00 A3003 RMK AO1 T00110001 10049 20011

More Conditions Fewer Conditions

Pressione 30.03 in
Visibilità 10.0 miglia
Nuvole Sereno
Punto di rugiada 32 °F
Umidità 93%
Piovosità 0.00 in
Spessore del manto nevoso Non disponibile.
Raggi UV 0 fuori da 12
Polline .40 fuori da 12
Qualità dell'aria Non disponibile.
Flu Activity Non disponibile.
METAR KHQU 251155Z AUTO 00000KT 10SM CLR 01/00 A3003 RMK AO1 T00110001 10049 20011

More Conditions Fewer Conditions

10-Day Weather Forecast

Almanac

Astronomia

Jan. 25, 2015 Alba Tramonto
Ora attuale
Crepuscolo civile
Crepuscolo nautico
Crepuscolo astronomico
Luna
Estensione della luce visibile
Lunghezza del giorno
Tomorrow will be .
, % of the Moon is Illuminated

Gli estremi di oggi

State Highs State Lows

Community

WunderPhotos

Upload Photos

1,789,873 foto caricate!

WunderBlogs® & News

Nearby

Qualità dell'aria

  Qualità dell'aria Indice AQ Inquinante
Not available.

Profondità neve

Stazione Profondità Altitudine

Attività sismica

Città  Distanza Mag. Data & Ora
Minimo Magnitudo Mostrato è 2.5.

Temperature delle acque costiere

Località Temperatura

Stazioni meteo nelle vicinanze